createdAt,value
2019-02-19T00:00:25.736Z,23.85
2019-02-19T00:01:30.986Z,22.30
2019-02-19T00:02:34.666Z,18.17
2019-02-19T00:03:38.263Z,18.90
2019-02-19T00:04:41.879Z,24.30
2019-02-19T00:05:45.540Z,18.98
2019-02-19T00:06:49.168Z,22.10
2019-02-19T00:07:52.770Z,16.82
2019-02-19T00:08:56.378Z,21.30
2019-02-19T00:10:00.004Z,16.95
2019-02-19T00:11:03.584Z,22.85
2019-02-19T00:12:07.291Z,24.75
2019-02-19T00:13:10.871Z,20.60
2019-02-19T00:14:14.482Z,18.10
2019-02-19T00:15:18.083Z,17.05
2019-02-19T00:16:21.682Z,15.98
2019-02-19T00:17:25.302Z,15.45
2019-02-19T00:18:28.918Z,17.60
2019-02-19T00:19:32.513Z,19.80
2019-02-19T00:20:36.184Z,15.20
2019-02-19T00:21:39.816Z,17.65
2019-02-19T00:22:43.407Z,18.30
2019-02-19T00:23:46.987Z,18.27
2019-02-19T00:24:50.630Z,16.93
2019-02-19T00:25:54.223Z,15.58
2019-02-19T00:26:57.826Z,14.85
2019-02-19T00:28:01.420Z,21.90
2019-02-19T00:29:05.013Z,17.27
2019-02-19T00:30:08.889Z,20.55
2019-02-19T00:31:12.498Z,18.30
2019-02-19T00:32:16.117Z,18.67
2019-02-19T00:33:19.743Z,25.70
2019-02-19T00:34:23.352Z,18.02
2019-02-19T00:35:26.964Z,19.92
2019-02-19T00:36:30.592Z,15.98
2019-02-19T00:37:34.205Z,18.42
2019-02-19T00:38:37.835Z,17.95
2019-02-19T00:39:41.415Z,14.23
2019-02-19T00:40:45.015Z,18.73
2019-02-19T00:41:48.646Z,14.95
2019-02-19T00:42:52.265Z,17.87
2019-02-19T00:43:55.864Z,13.45
2019-02-19T00:44:59.456Z,13.32
2019-02-19T00:46:03.149Z,16.70
2019-02-19T00:47:06.735Z,16.73
2019-02-19T00:48:10.368Z,20.17
2019-02-19T00:49:13.994Z,18.07
2019-02-19T00:50:17.578Z,16.25
2019-02-19T00:51:21.212Z,19.15
2019-02-19T00:52:24.833Z,16.45
2019-02-19T00:53:28.459Z,15.68
2019-02-19T00:54:32.055Z,19.35
2019-02-19T00:55:35.642Z,16.80
2019-02-19T00:56:39.308Z,17.65
2019-02-19T00:57:42.951Z,14.78
2019-02-19T00:58:46.548Z,14.65
2019-02-19T00:59:50.124Z,13.55
2019-02-19T01:00:53.720Z,15.65
2019-02-19T01:01:57.356Z,13.10
2019-02-19T01:03:00.953Z,15.08
2019-02-19T01:04:04.606Z,16.85
2019-02-19T01:05:08.448Z,17.70
2019-02-19T01:06:12.183Z,17.25
2019-02-19T01:07:15.819Z,17.15
2019-02-19T01:08:19.866Z,18.82
2019-02-19T01:09:23.729Z,17.20
2019-02-19T01:10:27.339Z,23.00
2019-02-19T01:11:30.985Z,21.82
2019-02-19T01:12:34.635Z,24.67
2019-02-19T01:13:38.252Z,23.47
2019-02-19T01:14:41.850Z,20.70
2019-02-19T01:15:45.560Z,19.48
2019-02-19T01:16:49.167Z,18.15
2019-02-19T01:17:52.779Z,21.77
2019-02-19T01:18:56.704Z,19.60
2019-02-19T01:20:00.332Z,20.12
2019-02-19T01:21:04.001Z,20.90
2019-02-19T01:22:07.613Z,19.77
2019-02-19T01:23:11.255Z,20.68
2019-02-19T01:24:14.865Z,17.80
2019-02-19T01:25:18.651Z,17.23
2019-02-19T01:26:22.269Z,20.82
2019-02-19T01:27:25.868Z,18.90
2019-02-19T01:28:29.451Z,15.15
2019-02-19T01:29:33.100Z,15.80
2019-02-19T01:30:36.755Z,19.10
2019-02-19T01:31:40.345Z,16.70
2019-02-19T01:32:43.929Z,15.65
2019-02-19T01:33:47.571Z,16.07
2019-02-19T01:34:51.158Z,18.90
2019-02-19T01:35:54.789Z,20.68
2019-02-19T01:36:58.356Z,19.20
2019-02-19T01:38:01.960Z,14.05
2019-02-19T01:39:06.155Z,19.87
2019-02-19T01:40:09.914Z,20.60
2019-02-19T01:41:13.501Z,14.60
2019-02-19T01:42:17.098Z,18.23
2019-02-19T01:43:20.728Z,19.02
2019-02-19T01:44:24.397Z,12.85
2019-02-19T01:45:33.923Z,23.45
2019-02-19T01:46:33.459Z,18.02
2019-02-19T01:47:37.042Z,14.47
2019-02-19T01:48:40.679Z,19.70
2019-02-19T01:49:44.297Z,16.85
2019-02-19T01:50:47.888Z,15.98
2019-02-19T01:51:51.498Z,14.33
2019-02-19T01:52:55.088Z,24.12
2019-02-19T01:53:58.675Z,28.85
2019-02-19T01:55:02.336Z,16.93
2019-02-19T01:56:05.975Z,18.32
2019-02-19T01:57:09.570Z,18.52
2019-02-19T01:58:13.164Z,19.95
2019-02-19T01:59:16.864Z,16.40
2019-02-19T02:00:20.470Z,20.85
2019-02-19T02:01:24.104Z,22.02
2019-02-19T02:02:27.735Z,18.00
2019-02-19T02:03:31.316Z,14.93
2019-02-19T02:04:35.260Z,17.67
2019-02-19T02:05:38.882Z,21.10
2019-02-19T02:06:42.509Z,20.35
2019-02-19T02:07:46.104Z,18.12
2019-02-19T02:08:49.691Z,20.15
2019-02-19T02:09:53.277Z,16.67
2019-02-19T02:10:56.921Z,20.20
2019-02-19T02:12:00.579Z,18.77
2019-02-19T02:13:04.174Z,20.68
2019-02-19T02:14:07.828Z,19.55
2019-02-19T02:15:11.446Z,27.10
2019-02-19T02:16:15.088Z,21.42
2019-02-19T02:17:18.697Z,20.37
2019-02-19T02:18:22.279Z,18.98
2019-02-19T02:19:26.100Z,20.32
2019-02-19T02:20:29.794Z,15.90
2019-02-19T02:21:33.523Z,26.93
2019-02-19T02:22:37.126Z,21.50
2019-02-19T02:23:40.730Z,20.02
2019-02-19T02:24:44.355Z,16.82
2019-02-19T02:25:48.007Z,19.12
2019-02-19T02:26:51.594Z,19.45
2019-02-19T02:27:55.177Z,20.37
2019-02-19T02:28:58.788Z,23.10
2019-02-19T02:30:02.495Z,14.78
2019-02-19T02:31:06.077Z,18.60
2019-02-19T02:32:09.698Z,19.82
2019-02-19T02:33:13.340Z,17.57
2019-02-19T02:34:16.968Z,17.23
2019-02-19T02:35:20.542Z,21.12
2019-02-19T02:36:24.122Z,22.55
2019-02-19T02:37:27.713Z,17.65
2019-02-19T02:38:31.351Z,18.10
2019-02-19T02:39:35.096Z,15.83
2019-02-19T02:40:38.681Z,15.65
2019-02-19T02:41:42.276Z,21.97
2019-02-19T02:42:45.896Z,22.60
2019-02-19T02:43:49.551Z,14.10
2019-02-19T02:44:53.134Z,15.43
2019-02-19T02:45:56.758Z,17.62
2019-02-19T02:47:00.415Z,18.80
2019-02-19T02:48:04.078Z,15.05
2019-02-19T02:49:07.687Z,15.08
2019-02-19T02:50:11.291Z,15.35
2019-02-19T02:51:14.903Z,16.17
2019-02-19T02:52:18.563Z,23.52
2019-02-19T02:53:22.179Z,15.45
2019-02-19T02:54:25.769Z,15.23
2019-02-19T02:55:29.416Z,16.80
2019-02-19T02:56:32.951Z,17.77
2019-02-19T02:57:36.585Z,14.07
2019-02-19T02:58:40.202Z,19.67
2019-02-19T02:59:43.808Z,14.75
2019-02-19T03:00:47.420Z,17.02
2019-02-19T03:01:51.010Z,16.52
2019-02-19T03:02:54.645Z,17.17
2019-02-19T03:03:58.250Z,18.45
2019-02-19T03:05:01.825Z,20.15
2019-02-19T03:06:19.040Z,15.32
2019-02-19T03:07:24.286Z,19.12
2019-02-19T03:08:27.934Z,14.58
2019-02-19T03:09:31.503Z,12.78
2019-02-19T03:10:35.096Z,15.28
2019-02-19T03:11:38.783Z,15.78
2019-02-19T03:12:42.390Z,17.73
2019-02-19T03:13:46.025Z,26.42
2019-02-19T03:14:49.635Z,14.50
2019-02-19T03:16:01.882Z,15.53
2019-02-19T03:16:58.485Z,12.05
2019-02-19T03:18:02.076Z,17.52
2019-02-19T03:19:05.782Z,14.73
2019-02-19T03:20:09.449Z,15.53
2019-02-19T03:21:13.053Z,14.85
2019-02-19T03:22:16.642Z,14.38
2019-02-19T03:23:20.242Z,13.20
2019-02-19T03:24:23.906Z,20.45
2019-02-19T03:25:27.502Z,17.77
2019-02-19T03:26:31.119Z,12.68
2019-02-19T03:27:34.733Z,16.73
2019-02-19T03:28:38.348Z,17.90
2019-02-19T03:29:41.975Z,15.20
2019-02-19T03:30:45.581Z,15.45
2019-02-19T03:31:49.181Z,15.30
2019-02-19T03:32:52.788Z,12.37
2019-02-19T03:33:56.386Z,13.48
2019-02-19T03:35:00.028Z,19.55
2019-02-19T03:36:03.643Z,19.92
2019-02-19T03:37:07.211Z,11.60
2019-02-19T03:38:10.821Z,16.75
2019-02-19T03:39:14.411Z,14.83
2019-02-19T03:40:18.059Z,15.13
2019-02-19T03:41:21.654Z,15.60
2019-02-19T03:42:25.248Z,18.37
2019-02-19T03:43:28.915Z,17.27
2019-02-19T03:44:32.512Z,17.48
2019-02-19T03:45:36.156Z,16.20
2019-02-19T03:46:39.824Z,13.35
2019-02-19T03:47:43.413Z,12.33
2019-02-19T03:48:47.015Z,12.88
2019-02-19T03:49:50.590Z,14.78
2019-02-19T03:50:54.252Z,13.22
2019-02-19T03:51:57.902Z,13.08
2019-02-19T03:53:01.566Z,16.15
2019-02-19T03:54:05.226Z,12.82
2019-02-19T03:55:08.989Z,11.88
2019-02-19T03:56:12.692Z,11.80
2019-02-19T03:57:16.312Z,14.05
2019-02-19T03:58:19.902Z,13.80
2019-02-19T03:59:23.487Z,13.22
2019-02-19T04:00:27.066Z,13.53
2019-02-19T04:01:30.704Z,13.50
2019-02-19T04:02:34.353Z,10.80
2019-02-19T04:03:38.026Z,10.13
2019-02-19T04:04:41.682Z,18.02
2019-02-19T04:05:45.284Z,15.75
2019-02-19T04:06:48.938Z,13.38
2019-02-19T04:07:52.518Z,13.03
2019-02-19T04:08:56.102Z,11.30
2019-02-19T04:09:59.689Z,20.75
2019-02-19T04:11:03.296Z,13.15
2019-02-19T04:12:06.945Z,15.28
2019-02-19T04:13:10.535Z,18.30
2019-02-19T04:14:14.142Z,13.72
2019-02-19T04:15:17.729Z,14.87
2019-02-19T04:16:21.638Z,20.88
2019-02-19T04:17:25.297Z,15.95
2019-02-19T04:18:28.918Z,13.10
2019-02-19T04:19:32.648Z,14.95
2019-02-19T04:20:36.259Z,17.98
2019-02-19T04:21:39.853Z,13.00
2019-02-19T04:22:43.492Z,16.05
2019-02-19T04:23:47.167Z,14.63
2019-02-19T04:24:50.755Z,16.10
2019-02-19T04:25:54.347Z,16.48
2019-02-19T04:26:57.953Z,26.55
2019-02-19T04:28:03.234Z,15.80
2019-02-19T04:29:06.822Z,15.30
2019-02-19T04:30:10.544Z,15.68
2019-02-19T04:31:14.123Z,16.27
2019-02-19T04:32:17.725Z,17.57
2019-02-19T04:33:21.353Z,13.83
2019-02-19T04:34:24.990Z,12.40
2019-02-19T04:35:28.602Z,14.38
2019-02-19T04:36:32.198Z,16.30
2019-02-19T04:37:35.781Z,19.50
2019-02-19T04:38:39.419Z,15.68
2019-02-19T04:39:43.033Z,19.70
2019-02-19T04:40:46.638Z,22.87
2019-02-19T04:41:50.266Z,18.00
2019-02-19T04:42:53.861Z,17.60
2019-02-19T04:43:57.491Z,17.02
2019-02-19T04:45:01.073Z,17.77
2019-02-19T04:46:04.677Z,20.92
2019-02-19T04:47:08.337Z,14.53
2019-02-19T04:48:12.008Z,14.40
2019-02-19T04:49:15.589Z,21.87
2019-02-19T04:50:19.791Z,13.60
2019-02-19T04:51:23.442Z,12.33
2019-02-19T04:52:27.033Z,18.77
2019-02-19T04:53:30.610Z,13.00
2019-02-19T04:54:34.244Z,21.12
2019-02-19T04:55:37.834Z,12.80
2019-02-19T04:56:41.431Z,12.33
2019-02-19T04:57:45.026Z,14.18
2019-02-19T04:58:48.663Z,12.75
2019-02-19T04:59:52.231Z,14.68
2019-02-19T05:00:55.841Z,12.28
2019-02-19T05:01:59.432Z,13.75
2019-02-19T05:03:03.039Z,22.15
2019-02-19T05:04:06.680Z,11.65
2019-02-19T05:05:10.432Z,18.35
2019-02-19T05:06:14.111Z,16.00
2019-02-19T05:07:17.699Z,12.10
2019-02-19T05:08:21.288Z,14.25
2019-02-19T05:09:24.928Z,15.83
2019-02-19T05:10:28.576Z,17.45
2019-02-19T05:11:32.158Z,13.65
2019-02-19T05:12:35.767Z,13.35
2019-02-19T05:13:39.384Z,12.78
2019-02-19T05:14:42.959Z,13.85
2019-02-19T05:15:46.577Z,14.13
2019-02-19T05:16:50.167Z,11.65
2019-02-19T05:17:53.770Z,11.48
2019-02-19T05:18:57.352Z,12.35
2019-02-19T05:20:00.942Z,11.03
2019-02-19T05:21:04.616Z,13.50
2019-02-19T05:22:08.229Z,12.78
2019-02-19T05:23:11.833Z,11.55
2019-02-19T05:24:15.426Z,13.43
2019-02-19T05:25:19.070Z,12.35
2019-02-19T05:26:22.658Z,12.63
2019-02-19T05:27:26.267Z,12.23
2019-02-19T05:28:29.901Z,10.93
2019-02-19T05:29:33.504Z,12.95
2019-02-19T05:30:37.102Z,14.25
2019-02-19T05:31:40.721Z,11.97
2019-02-19T05:32:44.345Z,12.82
2019-02-19T05:33:47.933Z,19.77
2019-02-19T05:34:51.532Z,15.18
2019-02-19T05:35:55.167Z,18.70
2019-02-19T05:36:58.759Z,12.13
2019-02-19T05:38:02.364Z,10.60
2019-02-19T05:39:06.253Z,12.18
2019-02-19T05:40:10.204Z,10.60
2019-02-19T05:41:13.810Z,13.93
2019-02-19T05:42:17.423Z,11.70
2019-02-19T05:43:21.031Z,12.15
2019-02-19T05:44:24.654Z,14.33
2019-02-19T05:45:28.260Z,14.93
2019-02-19T05:46:31.932Z,13.05
2019-02-19T05:47:35.556Z,11.63
2019-02-19T05:48:39.141Z,19.35
2019-02-19T05:49:42.750Z,21.80
2019-02-19T05:50:46.371Z,16.23
2019-02-19T05:51:49.974Z,13.25
2019-02-19T05:52:53.620Z,17.35
2019-02-19T05:53:57.281Z,14.00
2019-02-19T05:55:00.884Z,19.05
2019-02-19T05:56:04.589Z,16.90
2019-02-19T05:57:08.166Z,23.73
2019-02-19T05:58:11.750Z,10.93
2019-02-19T05:59:15.408Z,11.00
2019-02-19T06:00:19.015Z,12.88
2019-02-19T06:01:22.655Z,24.12
2019-02-19T06:02:26.275Z,14.28
2019-02-19T06:03:29.994Z,12.10
2019-02-19T06:04:33.608Z,12.50
2019-02-19T06:05:37.198Z,12.18
2019-02-19T06:06:40.836Z,13.28
2019-02-19T06:07:44.452Z,14.75
2019-02-19T06:08:48.024Z,8.73
2019-02-19T06:09:51.642Z,9.53
2019-02-19T06:10:55.256Z,9.68
2019-02-19T06:11:58.849Z,10.63
2019-02-19T06:13:02.448Z,14.53
2019-02-19T06:14:06.144Z,12.63
2019-02-19T06:15:11.811Z,11.63
2019-02-19T06:16:15.410Z,17.25
2019-02-19T06:17:18.995Z,14.10
2019-02-19T06:18:22.611Z,13.22
2019-02-19T06:19:26.209Z,14.58
2019-02-19T06:20:29.850Z,15.25
2019-02-19T06:21:33.438Z,10.75
2019-02-19T06:22:37.076Z,14.03
2019-02-19T06:23:40.851Z,14.83
2019-02-19T06:24:44.502Z,11.50
2019-02-19T06:25:48.096Z,10.15
2019-02-19T06:26:51.724Z,12.18
2019-02-19T06:27:55.426Z,11.45
2019-02-19T06:28:59.194Z,12.55
2019-02-19T06:30:02.860Z,16.00
2019-02-19T06:31:06.533Z,14.07
2019-02-19T06:32:10.155Z,12.18
2019-02-19T06:33:13.758Z,12.73
2019-02-19T06:34:17.537Z,17.12
2019-02-19T06:35:21.157Z,9.65
2019-02-19T06:36:24.835Z,20.27
2019-02-19T06:37:28.408Z,14.43
2019-02-19T06:38:32.021Z,16.00
2019-02-19T06:39:35.601Z,13.55
2019-02-19T06:40:39.204Z,18.02
2019-02-19T06:41:42.854Z,15.05
2019-02-19T06:42:46.477Z,10.72
2019-02-19T06:43:50.078Z,13.53
2019-02-19T06:44:53.736Z,10.95
2019-02-19T06:45:57.344Z,9.23
2019-02-19T06:47:06.730Z,23.73
2019-02-19T06:48:06.331Z,13.93
2019-02-19T06:49:10.040Z,15.00
2019-02-19T06:50:13.782Z,14.23
2019-02-19T06:51:17.405Z,14.63
2019-02-19T06:52:21.045Z,17.00
2019-02-19T06:53:24.649Z,14.58
2019-02-19T06:54:28.237Z,17.57
2019-02-19T06:55:31.857Z,13.40
2019-02-19T06:56:35.523Z,16.55
2019-02-19T06:57:39.177Z,16.65
2019-02-19T06:58:42.864Z,12.50
2019-02-19T06:59:46.438Z,15.38
2019-02-19T07:00:50.052Z,14.65
2019-02-19T07:02:01.177Z,14.98
2019-02-19T07:03:08.972Z,15.13
2019-02-19T07:04:14.264Z,17.35
2019-02-19T07:05:22.732Z,9.85
2019-02-19T07:06:26.345Z,17.17
2019-02-19T07:07:29.947Z,18.87
2019-02-19T07:08:33.593Z,48.60
2019-02-19T07:09:37.195Z,130.85
2019-02-19T07:10:40.924Z,93.62
2019-02-19T07:11:44.617Z,66.37
2019-02-19T07:12:48.230Z,59.20
2019-02-19T07:13:51.902Z,31.95
2019-02-19T07:14:55.516Z,32.88
2019-02-19T07:15:59.171Z,28.12
2019-02-19T07:17:02.757Z,28.90
2019-02-19T07:18:06.461Z,19.37
2019-02-19T07:19:10.063Z,29.87
2019-02-19T07:20:13.645Z,23.67
2019-02-19T07:21:17.248Z,23.98
2019-02-19T07:22:20.978Z,30.57
2019-02-19T07:23:24.594Z,17.70
2019-02-19T07:24:28.252Z,19.45
2019-02-19T07:25:31.779Z,15.45
2019-02-19T07:26:35.414Z,24.02
2019-02-19T07:27:39.034Z,20.17
2019-02-19T07:28:42.675Z,15.63
2019-02-19T07:29:46.269Z,19.23
2019-02-19T07:30:49.875Z,17.52
2019-02-19T07:31:53.476Z,23.00
2019-02-19T07:32:57.100Z,17.62
2019-02-19T07:34:00.684Z,23.65
2019-02-19T07:35:05.612Z,26.57
2019-02-19T07:36:09.277Z,47.38
2019-02-19T07:37:12.927Z,34.23
2019-02-19T07:38:16.502Z,35.00
2019-02-19T07:39:20.077Z,41.77
2019-02-19T07:40:23.733Z,28.15
2019-02-19T07:41:27.314Z,25.48
2019-02-19T07:42:30.906Z,27.17
2019-02-19T07:43:34.520Z,17.80
2019-02-19T07:44:38.105Z,30.77
2019-02-19T07:45:41.811Z,18.65
2019-02-19T07:46:45.424Z,19.02
2019-02-19T07:47:49.008Z,21.93
2019-02-19T07:48:52.644Z,18.62
2019-02-19T07:49:56.256Z,18.07
2019-02-19T07:50:59.885Z,24.20
2019-02-19T07:52:03.533Z,17.62
2019-02-19T07:53:07.262Z,17.32
2019-02-19T07:54:10.880Z,19.87
2019-02-19T07:55:14.540Z,22.27
2019-02-19T07:56:18.174Z,20.52
2019-02-19T07:57:21.781Z,24.15
2019-02-19T07:58:25.377Z,20.88
2019-02-19T07:59:29.040Z,20.57
2019-02-19T08:00:32.624Z,20.50
2019-02-19T08:01:36.224Z,16.67
2019-02-19T08:02:39.825Z,17.60
2019-02-19T08:03:43.431Z,18.12
2019-02-19T08:04:47.073Z,15.15
2019-02-19T08:05:50.685Z,20.70
2019-02-19T08:06:54.316Z,21.25
2019-02-19T08:07:57.937Z,22.32
2019-02-19T08:09:01.586Z,22.65
2019-02-19T08:10:08.084Z,20.25
2019-02-19T08:11:11.706Z,25.95
2019-02-19T08:12:15.340Z,17.50
2019-02-19T08:13:18.947Z,21.12
2019-02-19T08:14:22.531Z,27.55
2019-02-19T08:15:26.167Z,24.07
2019-02-19T08:16:29.783Z,22.15
2019-02-19T08:17:33.742Z,21.95
2019-02-19T08:18:37.308Z,24.05
2019-02-19T08:19:40.955Z,20.65
2019-02-19T08:20:44.612Z,18.23
2019-02-19T08:21:48.241Z,21.42
2019-02-19T08:22:51.860Z,20.10
2019-02-19T08:23:55.462Z,22.70
2019-02-19T08:24:59.035Z,25.35
2019-02-19T08:26:02.698Z,20.57
2019-02-19T08:27:06.295Z,26.75
2019-02-19T08:28:09.890Z,24.85
2019-02-19T08:29:14.135Z,23.65
2019-02-19T08:30:17.824Z,23.85
2019-02-19T08:31:21.392Z,27.60
2019-02-19T08:32:24.988Z,23.05
2019-02-19T08:33:28.671Z,22.02
2019-02-19T08:34:32.310Z,26.37
2019-02-19T08:35:35.936Z,25.65
2019-02-19T08:36:39.529Z,27.30
2019-02-19T08:37:43.114Z,25.57
2019-02-19T08:38:46.735Z,27.35
2019-02-19T08:39:50.333Z,29.02
2019-02-19T08:40:53.943Z,24.07
2019-02-19T08:41:57.565Z,30.82
2019-02-19T08:43:01.171Z,29.20
2019-02-19T08:44:04.894Z,36.00
2019-02-19T08:45:10.161Z,30.17
2019-02-19T08:46:13.846Z,31.30
2019-02-19T08:47:17.472Z,26.73
2019-02-19T08:48:21.073Z,26.70
2019-02-19T08:49:24.807Z,36.38
2019-02-19T08:50:28.414Z,30.95
2019-02-19T08:51:32.017Z,27.45
2019-02-19T08:52:35.672Z,27.05
2019-02-19T08:53:39.259Z,28.38
2019-02-19T08:54:42.861Z,26.12
2019-02-19T08:55:46.485Z,28.57
2019-02-19T08:56:50.134Z,26.20
2019-02-19T08:57:54.274Z,28.42
2019-02-19T08:58:57.946Z,24.60
2019-02-19T09:00:01.581Z,28.50
2019-02-19T09:01:05.200Z,26.73
2019-02-19T09:02:08.821Z,51.90
2019-02-19T09:03:12.457Z,28.85
2019-02-19T09:04:16.154Z,24.27
2019-02-19T09:05:19.740Z,57.27
2019-02-19T09:06:23.446Z,66.20
2019-02-19T09:07:27.050Z,39.48
2019-02-19T09:08:30.712Z,36.63
2019-02-19T09:09:34.337Z,28.77
2019-02-19T09:10:37.949Z,24.87
2019-02-19T09:11:41.559Z,25.32
2019-02-19T09:12:45.189Z,26.17
2019-02-19T09:13:48.915Z,29.30
2019-02-19T09:14:52.529Z,32.65
2019-02-19T09:15:56.259Z,22.27
2019-02-19T09:16:59.850Z,30.62
2019-02-19T09:18:03.559Z,27.05
2019-02-19T09:19:07.245Z,23.00
2019-02-19T09:20:11.321Z,28.35
2019-02-19T09:21:14.956Z,26.02
2019-02-19T09:22:18.711Z,43.80
2019-02-19T09:23:22.358Z,27.05
2019-02-19T09:24:26.108Z,29.10
2019-02-19T09:25:29.714Z,23.70
2019-02-19T09:26:33.315Z,24.30
2019-02-19T09:27:36.910Z,25.50
2019-02-19T09:28:40.674Z,31.20
2019-02-19T09:29:44.282Z,30.30
2019-02-19T09:30:47.902Z,31.97
2019-02-19T09:31:51.623Z,22.82
2019-02-19T09:32:55.200Z,25.37
2019-02-19T09:33:58.784Z,25.68
2019-02-19T09:35:02.408Z,27.30
2019-02-19T09:36:06.153Z,24.95
2019-02-19T09:37:09.788Z,20.57
2019-02-19T09:38:13.381Z,21.90
2019-02-19T09:39:17.147Z,28.60
2019-02-19T09:40:20.797Z,29.52
2019-02-19T09:41:24.415Z,27.65
2019-02-19T09:42:28.006Z,23.50
2019-02-19T09:43:35.482Z,20.92
2019-02-19T09:44:36.888Z,24.98
2019-02-19T09:45:40.494Z,22.10
2019-02-19T09:46:44.177Z,22.13
2019-02-19T09:47:47.768Z,20.77
2019-02-19T09:48:51.355Z,23.75
2019-02-19T09:49:55.083Z,20.88
2019-02-19T09:50:58.656Z,20.08
2019-02-19T09:52:02.263Z,24.92
2019-02-19T09:53:05.887Z,23.80
2019-02-19T09:54:09.513Z,20.75
2019-02-19T09:55:13.133Z,20.77
2019-02-19T09:56:16.806Z,23.60
2019-02-19T09:57:20.400Z,21.37
2019-02-19T09:58:24.015Z,23.90
2019-02-19T09:59:27.656Z,28.20
2019-02-19T10:00:31.249Z,24.32
2019-02-19T10:01:34.900Z,20.45
2019-02-19T10:02:38.512Z,24.30
2019-02-19T10:03:42.098Z,19.12
2019-02-19T10:04:45.732Z,23.77
2019-02-19T10:05:49.306Z,22.42
2019-02-19T10:06:52.925Z,27.98
2019-02-19T10:07:56.512Z,19.12
2019-02-19T10:09:00.111Z,24.35
2019-02-19T10:10:03.851Z,23.55
2019-02-19T10:11:07.518Z,20.65
2019-02-19T10:12:11.123Z,25.23
2019-02-19T10:13:14.795Z,25.95
2019-02-19T10:14:18.440Z,25.52
2019-02-19T10:15:22.071Z,21.70
2019-02-19T10:16:25.649Z,24.25
2019-02-19T10:17:29.252Z,24.65
2019-02-19T10:18:32.885Z,28.17
2019-02-19T10:19:36.501Z,21.52
2019-02-19T10:20:40.090Z,19.82
2019-02-19T10:21:45.679Z,20.82
2019-02-19T10:22:49.131Z,21.80
2019-02-19T10:23:52.922Z,22.22
2019-02-19T10:24:56.649Z,19.65
2019-02-19T10:26:00.264Z,21.37
2019-02-19T10:27:03.951Z,22.62
2019-02-19T10:28:07.557Z,21.23
2019-02-19T10:29:11.206Z,28.32
2019-02-19T10:30:19.674Z,26.80
2019-02-19T10:31:23.267Z,22.42
2019-02-19T10:32:26.978Z,29.07
2019-02-19T10:33:30.623Z,21.97
2019-02-19T10:34:34.204Z,24.65
2019-02-19T10:35:37.792Z,22.48
2019-02-19T10:36:41.393Z,19.77
2019-02-19T10:37:45.027Z,21.73
2019-02-19T10:38:48.626Z,20.68
2019-02-19T10:39:52.225Z,35.00
2019-02-19T10:40:55.964Z,25.95
2019-02-19T10:41:59.624Z,26.50
2019-02-19T10:43:03.267Z,23.40
2019-02-19T10:44:06.876Z,21.25
2019-02-19T10:45:13.678Z,21.65
2019-02-19T10:46:17.325Z,19.60
2019-02-19T10:47:20.984Z,30.10
2019-02-19T10:48:24.571Z,32.28
2019-02-19T10:49:28.273Z,31.77
2019-02-19T10:50:31.870Z,29.30
2019-02-19T10:51:35.485Z,20.00
2019-02-19T10:52:39.190Z,19.77
2019-02-19T10:53:42.789Z,22.67
2019-02-19T10:54:46.352Z,22.27
2019-02-19T10:55:49.988Z,21.05
2019-02-19T10:56:53.580Z,21.27
2019-02-19T10:57:57.187Z,19.30
2019-02-19T10:59:00.817Z,22.48
2019-02-19T11:00:07.798Z,26.30
2019-02-19T11:01:11.418Z,21.12
2019-02-19T11:02:14.994Z,23.32
2019-02-19T11:03:18.640Z,21.05
2019-02-19T11:04:22.228Z,25.23
2019-02-19T11:05:25.846Z,26.27
2019-02-19T11:06:29.491Z,24.30
2019-02-19T11:07:33.120Z,27.22
2019-02-19T11:08:36.757Z,21.27
2019-02-19T11:09:40.431Z,22.40
2019-02-19T11:10:44.038Z,22.45
2019-02-19T11:11:47.701Z,23.52
2019-02-19T11:12:51.308Z,21.52
2019-02-19T11:13:54.970Z,19.95
2019-02-19T11:14:58.648Z,23.85
2019-02-19T11:16:03.408Z,20.90
2019-02-19T11:17:07.147Z,20.00
2019-02-19T11:18:10.806Z,23.85
2019-02-19T11:19:14.425Z,20.08
2019-02-19T11:20:20.334Z,18.07
2019-02-19T11:21:23.941Z,20.17
2019-02-19T11:22:27.556Z,23.67
2019-02-19T11:23:33.728Z,24.43
2019-02-19T11:24:37.436Z,23.10
2019-02-19T11:25:41.116Z,17.90
2019-02-19T11:26:44.722Z,19.82
2019-02-19T11:27:48.363Z,22.40
2019-02-19T11:28:52.019Z,18.75
2019-02-19T11:29:55.606Z,19.15
2019-02-19T11:30:59.289Z,20.25
2019-02-19T11:32:02.885Z,16.70
2019-02-19T11:33:06.634Z,21.70
2019-02-19T11:34:10.307Z,21.23
2019-02-19T11:35:13.985Z,19.23
2019-02-19T11:36:17.591Z,17.90
2019-02-19T11:37:21.348Z,20.70
2019-02-19T11:38:24.971Z,18.37
2019-02-19T11:39:28.682Z,18.07
2019-02-19T11:40:32.294Z,22.58
2019-02-19T11:41:35.887Z,20.85
2019-02-19T11:42:39.560Z,17.42
2019-02-19T11:43:43.295Z,18.30
2019-02-19T11:44:47.002Z,28.57
2019-02-19T11:45:50.621Z,17.70
2019-02-19T11:46:54.287Z,21.77
2019-02-19T11:47:57.950Z,18.17
2019-02-19T11:49:01.624Z,19.55
2019-02-19T11:50:06.568Z,16.67
2019-02-19T11:51:10.252Z,15.18
2019-02-19T11:52:13.866Z,16.27
2019-02-19T11:53:17.495Z,17.55
2019-02-19T11:54:21.925Z,18.23
2019-02-19T11:55:25.583Z,16.30
2019-02-19T11:56:29.169Z,19.10
2019-02-19T11:57:32.779Z,14.07
2019-02-19T11:58:36.438Z,14.85
2019-02-19T11:59:40.198Z,15.75
2019-02-19T12:00:45.173Z,16.23
2019-02-19T12:01:48.772Z,14.13
2019-02-19T12:02:52.659Z,16.42
2019-02-19T12:03:56.366Z,12.58
2019-02-19T12:05:00.008Z,15.08
2019-02-19T12:06:03.697Z,15.68
2019-02-19T12:07:07.286Z,14.45
2019-02-19T12:08:10.881Z,20.15
2019-02-19T12:09:14.590Z,12.65
2019-02-19T12:10:18.526Z,18.42
2019-02-19T12:11:22.191Z,15.68
2019-02-19T12:12:25.779Z,14.85
2019-02-19T12:13:29.431Z,14.25
2019-02-19T12:14:33.149Z,13.20
2019-02-19T12:15:36.774Z,17.45
2019-02-19T12:16:40.481Z,14.28
2019-02-19T12:17:45.572Z,16.50
2019-02-19T12:18:49.118Z,14.85
2019-02-19T12:19:52.766Z,24.37
2019-02-19T12:20:56.498Z,17.37
2019-02-19T12:22:00.175Z,15.90
2019-02-19T12:23:03.883Z,16.42
2019-02-19T12:24:07.480Z,14.35
2019-02-19T12:25:11.663Z,18.87
2019-02-19T12:26:15.437Z,14.70
2019-02-19T12:27:19.135Z,12.13
2019-02-19T12:28:24.184Z,18.65
2019-02-19T12:29:27.848Z,20.57
2019-02-19T12:30:31.460Z,14.03
2019-02-19T12:31:35.089Z,17.45
2019-02-19T12:32:38.683Z,12.37
2019-02-19T12:33:42.339Z,21.37
2019-02-19T12:34:45.935Z,7.62
2019-02-19T12:35:49.719Z,12.90
2019-02-19T12:36:53.344Z,13.50
2019-02-19T12:37:57.103Z,18.98
2019-02-19T12:39:00.674Z,13.20
2019-02-19T12:40:06.413Z,10.50
2019-02-19T12:41:10.139Z,13.68
2019-02-19T12:42:13.846Z,13.85
2019-02-19T12:43:17.431Z,13.10
2019-02-19T12:44:21.172Z,11.93
2019-02-19T12:45:24.878Z,12.88
2019-02-19T12:46:28.555Z,14.68
2019-02-19T12:47:32.348Z,15.83
2019-02-19T12:48:35.952Z,19.25
2019-02-19T12:49:39.708Z,11.22
2019-02-19T12:50:43.403Z,13.65
2019-02-19T12:51:47.014Z,16.60
2019-02-19T12:52:50.638Z,17.57
2019-02-19T12:53:54.240Z,11.50
2019-02-19T12:54:57.831Z,15.13
2019-02-19T12:56:01.475Z,13.28
2019-02-19T12:57:05.089Z,12.28
2019-02-19T12:58:08.745Z,18.15
2019-02-19T12:59:12.355Z,15.15
2019-02-19T13:00:19.794Z,14.60
2019-02-19T13:01:23.488Z,13.10
2019-02-19T13:02:27.070Z,9.50
2019-02-19T13:03:30.690Z,21.23
2019-02-19T13:04:34.298Z,9.40
2019-02-19T13:05:37.975Z,10.18
2019-02-19T13:06:41.650Z,15.88
2019-02-19T13:07:46.969Z,11.65
2019-02-19T13:08:50.749Z,10.23
2019-02-19T13:09:54.354Z,15.98
2019-02-19T13:10:57.975Z,15.18
2019-02-19T13:12:01.627Z,11.63
2019-02-19T13:13:05.286Z,16.65
2019-02-19T13:14:09.017Z,9.95
2019-02-19T13:15:17.799Z,12.40
2019-02-19T13:16:21.420Z,15.58
2019-02-19T13:17:25.008Z,12.03
2019-02-19T13:18:28.730Z,16.65
2019-02-19T13:19:32.537Z,8.95
2019-02-19T13:20:36.176Z,10.28
2019-02-19T13:21:40.293Z,10.23
2019-02-19T13:22:44.019Z,10.58
2019-02-19T13:23:47.879Z,10.23
2019-02-19T13:24:51.460Z,9.40
2019-02-19T13:25:55.105Z,10.60
2019-02-19T13:26:58.848Z,7.50
2019-02-19T13:28:02.551Z,11.00
2019-02-19T13:29:06.134Z,8.03
2019-02-19T13:30:12.469Z,10.82
2019-02-19T13:31:16.160Z,12.28
2019-02-19T13:32:19.777Z,16.12
2019-02-19T13:33:23.366Z,18.62
2019-02-19T13:34:26.949Z,11.00
2019-02-19T13:35:30.556Z,12.25
2019-02-19T13:36:34.194Z,8.85
2019-02-19T13:37:37.859Z,8.25
2019-02-19T13:38:41.465Z,10.03
2019-02-19T13:39:45.083Z,13.75
2019-02-19T13:40:48.680Z,10.85
2019-02-19T13:41:52.330Z,6.47